Time;durP1;ratioP1;P1;durP2;ratioP2;P2;SDS_P1;SDS_P2;PMS_P1;PMS_P2;Temp;Humidity;BMP_temperature;BMP_pressure;BME280_temperature;BME280_humidity;BME280_pressure;Samples;Min_cycle;Max_cycle;Signal;HPM_P1;HPM_P2
2021/07/07 00:02:24;;;;;;;7.00;1.63;;;16.90;72.70;;;;;;4952635;28;20186;-91
2021/07/07 00:04:50;;;;;;;3.45;1.38;;;16.80;72.50;;;;;;4971215;28;20648;-90
2021/07/07 00:07:16;;;;;;;8.48;1.70;;;16.80;72.70;;;;;;4971345;28;20179;-91
2021/07/07 00:09:42;;;;;;;4.57;1.98;;;16.90;72.80;;;;;;4956379;28;20202;-91
2021/07/07 00:12:08;;;;;;;4.10;2.03;;;16.70;74.30;;;;;;4970875;28;20183;-89
2021/07/07 00:14:34;;;;;;;5.72;1.75;;;16.60;74.60;;;;;;4955979;28;20207;-90
2021/07/07 00:16:59;;;;;;;7.38;2.30;;;16.50;74.60;;;;;;4955903;28;20263;-89
2021/07/07 00:19:25;;;;;;;6.45;2.80;;;16.40;74.70;;;;;;4970950;28;20211;-90
2021/07/07 00:21:57;;;;;;;8.98;2.30;;;16.40;74.70;;;;;;4955930;28;20670;-90
2021/07/07 00:24:23;;;;;;;9.18;2.10;;;16.50;74.30;;;;;;4957240;28;20164;-90
2021/07/07 00:26:49;;;;;;;7.25;1.88;;;16.40;74.60;;;;;;4956489;28;20661;-89
2021/07/07 00:29:14;;;;;;;6.07;2.22;;;16.30;75.00;;;;;;4971518;28;20195;-90
2021/07/07 00:31:40;;;;;;;3.57;1.70;;;16.20;75.50;;;;;;4956206;28;20176;-90
2021/07/07 00:34:06;;;;;;;11.73;2.10;;;16.10;75.60;;;;;;4971306;28;20211;-90
2021/07/07 00:36:32;;;;;;;9.17;2.03;;;16.10;75.90;;;;;;4956526;28;20179;-89
2021/07/07 00:38:57;;;;;;;4.03;1.80;;;16.00;76.20;;;;;;4956460;28;20213;-90
2021/07/07 00:41:23;;;;;;;6.70;1.67;;;15.90;76.10;;;;;;4971264;28;20654;-90
2021/07/07 00:43:48;;;;;;;5.37;1.97;;;15.90;76.10;;;;;;4955311;28;20278;-90
2021/07/07 00:46:14;;;;;;;6.80;1.43;;;16.00;76.20;;;;;;4971176;28;20186;-90
2021/07/07 00:48:40;;;;;;;5.70;1.73;;;16.00;75.70;;;;;;4956166;28;20196;-90
2021/07/07 00:51:05;;;;;;;4.90;1.60;;;16.00;76.30;;;;;;4971180;28;20258;-89
2021/07/07 00:53:32;;;;;;;4.23;1.70;;;15.80;76.60;;;;;;4955325;28;20233;-90
2021/07/07 00:55:59;;;;;;;9.73;2.00;;;15.80;77.00;;;;;;4954981;28;20207;-90
2021/07/07 00:58:26;;;;;;;3.90;1.63;;;15.70;77.10;;;;;;4971119;28;20182;-90
2021/07/07 01:00:52;;;;;;;8.10;1.93;;;15.70;77.60;;;;;;4956597;28;20179;-90
2021/07/07 01:03:18;;;;;;;5.60;1.40;;;15.70;77.60;;;;;;4970881;28;20187;-90
2021/07/07 01:05:43;;;;;;;5.97;2.10;;;15.70;77.40;;;;;;4956149;28;20179;-90
2021/07/07 01:08:10;;;;;;;5.47;1.60;;;15.70;77.10;;;;;;4971523;28;20188;-90
2021/07/07 01:10:36;;;;;;;9.23;1.70;;;15.70;77.20;;;;;;4956368;28;20198;-90
2021/07/07 01:13:02;;;;;;;10.27;1.80;;;15.70;77.30;;;;;;4956379;28;20172;-89
2021/07/07 01:15:28;;;;;;;5.80;1.77;;;15.60;77.90;;;;;;4955356;28;20622;-90
2021/07/07 01:17:54;;;;;;;7.90;2.13;;;15.60;77.80;;;;;;4971091;28;20639;-90
2021/07/07 01:20:22;;;;;;;12.63;1.80;;;15.70;77.50;;;;;;4954988;28;20264;-90
2021/07/07 01:22:49;;;;;;;8.77;2.03;;;15.70;77.50;;;;;;4956099;28;20203;-90
2021/07/07 01:25:16;;;;;;;6.97;2.20;;;15.70;77.40;;;;;;4956198;28;20757;-90
2021/07/07 01:27:43;;;;;;;7.75;1.80;;;15.70;77.60;;;;;;4971144;28;20206;-90
2021/07/07 01:30:14;;;;;;;7.60;1.90;;;15.70;77.90;;;;;;4956212;28;20249;-90
2021/07/07 01:32:39;;;;;;;9.73;1.90;;;15.70;77.70;;;;;;4956151;28;20175;-90
2021/07/07 01:35:06;;;;;;;4.80;1.90;;;15.70;77.80;;;;;;4955888;28;20277;-90
2021/07/07 01:37:32;;;;;;;8.45;1.95;;;15.60;78.00;;;;;;4955904;28;20559;-90
2021/07/07 01:39:58;;;;;;;3.73;1.53;;;15.60;78.00;;;;;;4970765;28;20199;-90
2021/07/07 01:42:23;;;;;;;3.20;1.80;;;15.60;78.30;;;;;;4954952;28;20171;-90
2021/07/07 01:44:49;;;;;;;5.70;1.55;;;15.50;78.40;;;;;;4955858;28;20241;-90
2021/07/07 01:47:15;;;;;;;5.40;1.73;;;15.50;78.50;;;;;;4954835;28;20278;-90
2021/07/07 01:49:40;;;;;;;5.07;1.90;;;15.30;79.30;;;;;;4955636;28;20202;-90
2021/07/07 01:52:06;;;;;;;3.70;1.90;;;15.20;80.00;;;;;;4970448;28;20663;-90
2021/07/07 01:54:32;;;;;;;4.97;2.07;;;15.00;80.60;;;;;;4970660;28;20234;-90
2021/07/07 01:56:57;;;;;;;9.67;2.10;;;14.80;81.20;;;;;;4954850;28;20661;-90
2021/07/07 01:59:23;;;;;;;5.57;2.07;;;14.70;81.60;;;;;;4954699;28;20210;-90
2021/07/07 02:01:49;;;;;;;6.80;2.17;;;14.80;81.70;;;;;;4954820;28;20187;-90
2021/07/07 02:04:14;;;;;;;7.23;2.03;;;14.90;81.40;;;;;;4955952;28;20183;-90
2021/07/07 02:06:40;;;;;;;4.30;1.87;;;14.90;80.80;;;;;;4970963;28;20205;-90
2021/07/07 02:09:06;;;;;;;6.77;2.07;;;15.00;80.30;;;;;;4955685;28;20297;-90
2021/07/07 02:11:33;;;;;;;5.47;2.10;;;15.10;80.00;;;;;;4954584;28;20565;-90
2021/07/07 02:13:58;;;;;;;7.97;2.10;;;15.10;79.90;;;;;;4954275;28;20257;-90
2021/07/07 02:16:24;;;;;;;6.03;1.80;;;15.10;79.60;;;;;;4956051;28;20608;-90
2021/07/07 02:18:50;;;;;;;6.03;1.97;;;15.10;79.70;;;;;;4954640;28;20226;-90
2021/07/07 02:21:15;;;;;;;3.90;1.70;;;15.20;79.60;;;;;;4954564;28;20179;-90
2021/07/07 02:23:41;;;;;;;6.17;1.97;;;15.20;79.40;;;;;;4956084;28;20180;-90
2021/07/07 02:26:06;;;;;;;7.43;1.93;;;15.10;79.30;;;;;;4955179;28;20176;-90
2021/07/07 02:28:32;;;;;;;6.00;1.80;;;15.00;79.40;;;;;;4955248;28;20195;-90
2021/07/07 02:30:58;;;;;;;13.07;1.90;;;15.00;79.50;;;;;;4970533;28;20184;-91
2021/07/07 02:33:25;;;;;;;5.97;1.90;;;14.80;80.30;;;;;;4955325;28;20203;-90
2021/07/07 02:35:51;;;;;;;6.07;2.10;;;14.80;80.90;;;;;;4970146;28;20218;-90
2021/07/07 02:38:20;;;;;;;9.80;2.30;;;14.70;81.20;;;;;;4955467;29;20547;-90
2021/07/07 02:40:48;;;;;;;5.57;1.70;;;14.50;82.00;;;;;;4955363;28;20188;-90
2021/07/07 02:43:13;;;;;;;6.00;2.40;;;14.50;81.60;;;;;;4955792;28;20175;-90
2021/07/07 02:45:40;;;;;;;9.83;2.10;;;14.50;81.70;;;;;;4955382;28;20258;-90
2021/07/07 02:48:08;;;;;;;5.17;1.93;;;14.50;82.10;;;;;;4955782;28;20175;-90
2021/07/07 02:50:34;;;;;;;10.77;3.37;;;14.40;81.80;;;;;;4954416;28;20207;-90
2021/07/07 02:53:00;;;;;;;6.03;1.77;;;14.40;82.40;;;;;;4970065;28;20187;-90
2021/07/07 02:55:26;;;;;;;6.07;2.20;;;14.30;82.70;;;;;;4955661;28;20245;-90
2021/07/07 02:57:56;;;;;;;10.50;2.00;;;14.30;82.60;;;;;;4955420;28;20175;-90
2021/07/07 03:00:23;;;;;;;6.00;1.93;;;14.40;82.30;;;;;;4970758;28;20620;-90
2021/07/07 03:02:48;;;;;;;8.57;3.00;;;14.40;82.00;;;;;;4970143;28;20179;-90
2021/07/07 03:05:14;;;;;;;5.83;2.00;;;14.40;82.20;;;;;;4955687;28;20184;-90
2021/07/07 03:07:40;;;;;;;3.00;2.00;;;14.30;82.60;;;;;;4953656;28;20635;-90
2021/07/07 03:10:07;;;;;;;6.17;1.90;;;14.20;82.70;;;;;;4955428;28;20282;-90
2021/07/07 03:12:33;;;;;;;2.43;1.67;;;14.20;83.10;;;;;;4955503;28;20175;-90
2021/07/07 03:14:59;;;;;;;2.23;1.70;;;14.20;83.20;;;;;;4955620;28;20565;-90
2021/07/07 03:17:25;;;;;;;4.73;1.80;;;14.20;83.10;;;;;;4955822;28;20179;-90
2021/07/07 03:19:50;;;;;;;8.63;1.90;;;14.40;82.60;;;;;;4970323;28;20280;-90
2021/07/07 03:22:17;;;;;;;3.57;1.90;;;14.50;82.40;;;;;;4955149;28;20190;-90
2021/07/07 03:24:43;;;;;;;6.67;1.97;;;14.40;82.30;;;;;;4954124;28;20579;-90
2021/07/07 03:27:08;;;;;;;10.87;1.80;;;14.50;82.60;;;;;;4970154;28;20270;-90
2021/07/07 03:29:34;;;;;;;5.70;1.70;;;14.50;82.90;;;;;;4955648;28;20226;-90
2021/07/07 03:32:00;;;;;;;8.50;2.20;;;14.50;82.70;;;;;;4954050;28;20275;-91
2021/07/07 03:34:25;;;;;;;7.93;1.93;;;14.50;82.50;;;;;;4969869;28;20752;-90
2021/07/07 03:36:51;;;;;;;4.17;2.10;;;14.60;82.70;;;;;;4953359;28;20188;-90
2021/07/07 03:39:16;;;;;;;10.37;2.13;;;14.50;82.70;;;;;;4954621;28;20291;-90
2021/07/07 03:41:42;;;;;;;9.23;2.90;;;14.40;83.00;;;;;;4955154;28;20175;-90
2021/07/07 03:44:08;;;;;;;8.13;2.03;;;14.40;82.90;;;;;;4955465;28;20175;-90
2021/07/07 03:46:33;;;;;;;6.37;1.70;;;14.40;82.60;;;;;;4953722;28;20183;-90
2021/07/07 03:48:59;;;;;;;5.83;1.60;;;14.40;82.40;;;;;;4969288;28;20207;-90
2021/07/07 03:51:24;;;;;;;7.70;1.87;;;14.40;82.40;;;;;;4955036;28;20175;-90
2021/07/07 03:53:50;;;;;;;4.67;1.67;;;14.40;82.40;;;;;;4954844;28;20639;-90
2021/07/07 03:56:16;;;;;;;5.43;1.83;;;14.40;82.40;;;;;;4955050;28;20179;-90
2021/07/07 03:58:41;;;;;;;5.17;1.70;;;14.50;82.20;;;;;;4953703;28;20202;-90
2021/07/07 04:01:07;;;;;;;7.73;1.73;;;14.50;82.10;;;;;;4955082;28;20172;-90
2021/07/07 04:03:33;;;;;;;3.67;1.70;;;14.60;81.90;;;;;;4954192;28;20171;-90
2021/07/07 04:05:58;;;;;;;7.97;1.73;;;14.60;81.80;;;;;;4954869;28;20600;-90
2021/07/07 04:08:24;;;;;;;12.47;2.13;;;14.50;82.40;;;;;;4955313;28;20175;-90
2021/07/07 04:10:49;;;;;;;6.63;2.00;;;14.40;82.60;;;;;;4969848;28;20222;-90
2021/07/07 04:13:15;;;;;;;8.10;1.80;;;14.40;82.90;;;;;;4954975;28;20271;-90
2021/07/07 04:15:41;;;;;;;8.23;1.80;;;14.50;83.00;;;;;;4955273;28;20203;-90
2021/07/07 04:18:09;;;;;;;8.93;1.93;;;14.40;83.30;;;;;;4954270;29;20182;-90
2021/07/07 04:20:35;;;;;;;5.73;1.67;;;14.40;83.60;;;;;;4969551;28;20203;-90
2021/07/07 04:23:00;;;;;;;4.27;2.00;;;14.40;83.80;;;;;;4969948;28;20179;-90
2021/07/07 04:25:26;;;;;;;3.13;2.10;;;14.40;84.00;;;;;;4954664;28;20229;-90
2021/07/07 04:27:52;;;;;;;3.10;1.87;;;14.40;84.20;;;;;;4954071;28;20251;-90
2021/07/07 04:30:18;;;;;;;3.83;2.43;;;14.40;84.40;;;;;;4953770;28;20234;-90
2021/07/07 04:32:45;;;;;;;4.87;1.83;;;14.50;84.20;;;;;;4969295;28;20183;-90
2021/07/07 04:35:13;;;;;;;6.53;1.90;;;14.50;84.40;;;;;;4969383;28;20219;-90
2021/07/07 04:37:39;;;;;;;6.93;1.80;;;14.50;84.50;;;;;;4954594;28;20176;-90
2021/07/07 04:40:07;;;;;;;7.43;1.80;;;14.50;84.40;;;;;;4954430;28;20333;-90
2021/07/07 04:42:33;;;;;;;4.83;1.87;;;14.50;84.60;;;;;;4969103;28;20190;-90
2021/07/07 04:44:59;;;;;;;6.07;2.10;;;14.60;84.50;;;;;;4954211;28;20209;-90
2021/07/07 04:47:25;;;;;;;8.37;2.13;;;14.60;84.50;;;;;;4969804;28;20249;-90
2021/07/07 04:49:50;;;;;;;4.80;2.17;;;14.70;84.30;;;;;;4953661;29;20210;-90
2021/07/07 04:52:16;;;;;;;3.53;1.63;;;14.80;84.40;;;;;;4956576;28;20534;-90
2021/07/07 04:54:42;;;;;;;10.63;1.80;;;14.80;84.30;;;;;;4958359;28;20723;-90
2021/07/07 04:57:07;;;;;;;4.13;1.73;;;14.80;84.30;;;;;;4956448;28;20229;-90
2021/07/07 04:59:33;;;;;;;3.47;1.63;;;14.90;84.50;;;;;;4956700;28;20319;-90
2021/07/07 05:01:59;;;;;;;3.30;1.70;;;14.80;84.50;;;;;;4972872;28;20179;-90
2021/07/07 05:04:24;;;;;;;5.63;1.80;;;14.90;84.50;;;;;;4956739;28;20179;-90
2021/07/07 05:06:50;;;;;;;3.50;1.77;;;15.00;84.40;;;;;;4958043;28;20258;-90
2021/07/07 05:09:16;;;;;;;8.77;1.83;;;15.00;84.30;;;;;;4957216;28;20199;-90
2021/07/07 05:11:41;;;;;;;3.30;1.90;;;15.10;84.20;;;;;;4957819;28;20198;-90
2021/07/07 05:14:08;;;;;;;2.50;1.67;;;15.10;84.30;;;;;;4956354;28;20297;-90
2021/07/07 05:16:34;;;;;;;8.97;1.80;;;15.20;84.30;;;;;;4957955;28;20176;-90
2021/07/07 05:18:59;;;;;;;6.60;1.67;;;15.20;84.40;;;;;;4957264;28;20269;-90
2021/07/07 05:21:25;;;;;;;5.20;2.00;;;15.10;84.60;;;;;;4956781;28;20542;-90
2021/07/07 05:23:50;;;;;;;3.83;1.70;;;15.10;84.60;;;;;;4957420;28;20180;-90
2021/07/07 05:26:16;;;;;;;5.03;1.70;;;15.10;84.40;;;;;;4957160;28;20180;-90
2021/07/07 05:28:42;;;;;;;4.97;1.93;;;15.10;84.50;;;;;;4972422;28;20203;-90
2021/07/07 05:31:08;;;;;;;5.10;2.10;;;15.10;84.40;;;;;;4957517;28;20670;-90
2021/07/07 05:33:36;;;;;;;3.50;1.80;;;15.20;84.50;;;;;;4971845;28;20233;-90
2021/07/07 05:36:09;;;;;;;5.63;1.83;;;15.20;84.50;;;;;;4971845;28;20206;-90
2021/07/07 05:38:36;;;;;;;5.27;1.90;;;15.20;84.50;;;;;;4972021;28;20199;-90
2021/07/07 05:41:03;;;;;;;5.17;1.90;;;15.20;84.20;;;;;;4957000;28;20258;-90
2021/07/07 05:43:29;;;;;;;6.53;1.87;;;15.20;84.10;;;;;;4957219;28;20243;-90
2021/07/07 05:45:57;;;;;;;6.90;2.27;;;15.20;84.10;;;;;;4956791;28;20179;-90
2021/07/07 05:48:24;;;;;;;3.93;2.20;;;15.20;83.90;;;;;;4956824;28;20644;-90
2021/07/07 05:50:49;;;;;;;8.47;2.23;;;15.30;84.00;;;;;;4957153;28;20243;-90
2021/07/07 05:53:15;;;;;;;2.70;2.00;;;15.20;84.00;;;;;;4957072;28;20230;-90
2021/07/07 05:55:41;;;;;;;6.40;2.00;;;15.30;84.00;;;;;;4957334;28;20249;-90
2021/07/07 05:58:06;;;;;;;3.87;1.90;;;15.30;84.10;;;;;;4957068;28;20168;-90
2021/07/07 06:00:32;;;;;;;5.00;2.03;;;15.30;84.30;;;;;;4971453;28;20226;-90
2021/07/07 06:02:58;;;;;;;2.93;1.80;;;15.40;84.10;;;;;;4956980;28;20164;-90
2021/07/07 06:05:24;;;;;;;7.83;2.20;;;15.50;84.10;;;;;;4971682;28;20273;-90
2021/07/07 06:07:51;;;;;;;5.00;2.07;;;15.50;84.20;;;;;;4957054;28;20554;-90
2021/07/07 06:10:19;;;;;;;5.78;2.10;;;15.60;84.10;;;;;;4956758;28;20200;-90
2021/07/07 06:12:45;;;;;;;6.90;2.40;;;15.70;83.80;;;;;;4956518;28;20640;-90
2021/07/07 06:15:13;;;;;;;8.73;2.30;;;15.80;83.40;;;;;;4956291;28;20213;-90
2021/07/07 06:17:39;;;;;;;3.20;1.80;;;16.00;84.00;;;;;;4971084;28;20258;-90
2021/07/07 06:20:06;;;;;;;10.68;1.90;;;16.20;83.40;;;;;;4954752;28;20231;-90
2021/07/07 06:22:32;;;;;;;4.82;2.13;;;16.30;82.20;;;;;;4970537;28;20226;-90
2021/07/07 06:24:58;;;;;;;8.98;2.10;;;16.40;82.50;;;;;;4954612;28;20183;-90
2021/07/07 06:27:24;;;;;;;5.28;1.92;;;16.50;81.00;;;;;;4955696;28;20178;-90
2021/07/07 06:29:49;;;;;;;8.07;1.90;;;16.80;80.70;;;;;;4971303;28;20675;-90
2021/07/07 06:32:17;;;;;;;7.97;2.22;;;16.90;80.00;;;;;;4955833;28;20194;-90
2021/07/07 06:34:43;;;;;;;7.70;1.77;;;16.90;78.50;;;;;;4955213;28;20574;-90
2021/07/07 06:37:12;;;;;;;6.70;1.80;;;17.00;78.90;;;;;;4955477;28;20190;-90
2021/07/07 06:39:38;;;;;;;7.85;1.90;;;17.20;78.30;;;;;;4954943;28;20196;-90
2021/07/07 06:42:04;;;;;;;5.60;1.90;;;17.20;77.30;;;;;;4955631;28;20229;-90
2021/07/07 06:44:30;;;;;;;6.15;1.90;;;17.20;78.70;;;;;;4955307;28;20183;-90
2021/07/07 06:46:57;;;;;;;6.05;1.98;;;17.20;77.30;;;;;;4955362;28;20215;-90
2021/07/07 06:49:22;;;;;;;10.63;2.00;;;17.10;77.00;;;;;;4970243;28;20620;-90
2021/07/07 06:51:49;;;;;;;7.68;1.85;;;17.20;76.90;;;;;;4954418;28;20180;-90
2021/07/07 06:54:15;;;;;;;4.45;1.90;;;17.30;77.50;;;;;;4955366;28;20195;-90
2021/07/07 06:56:41;;;;;;;3.35;1.73;;;17.40;77.00;;;;;;4955336;28;20172;-90
2021/07/07 06:59:06;;;;;;;6.72;1.75;;;17.40;76.90;;;;;;4955005;28;20540;-90
2021/07/07 07:01:32;;;;;;;5.30;1.65;;;17.60;76.30;;;;;;4953816;28;20230;-90
2021/07/07 07:03:58;;;;;;;3.88;1.98;;;17.70;76.60;;;;;;4953906;28;20655;-90
2021/07/07 07:06:24;;;;;;;4.70;1.88;;;17.70;75.60;;;;;;4955430;28;20202;-90
2021/07/07 07:08:51;;;;;;;3.92;1.75;;;17.80;77.00;;;;;;4955094;28;20218;-90
2021/07/07 07:11:17;;;;;;;4.45;1.70;;;17.90;76.60;;;;;;4954124;28;20178;-90
2021/07/07 07:13:45;;;;;;;4.78;1.50;;;18.00;75.80;;;;;;4954775;28;20257;-90
2021/07/07 07:16:12;;;;;;;6.32;1.60;;;18.10;76.40;;;;;;4953275;28;20701;-90
2021/07/07 07:18:37;;;;;;;8.00;1.80;;;18.20;74.00;;;;;;4954822;28;20207;-90
2021/07/07 07:21:03;;;;;;;6.85;2.38;;;18.20;73.30;;;;;;4953905;28;20549;-90
2021/07/07 07:23:29;;;;;;;5.55;1.70;;;18.20;71.90;;;;;;4969105;28;20190;-90
2021/07/07 07:25:54;;;;;;;9.18;1.60;;;18.20;71.80;;;;;;4969523;28;20182;-90
2021/07/07 07:28:20;;;;;;;6.00;1.45;;;18.30;72.80;;;;;;4954175;28;20179;-90
2021/07/07 07:30:46;;;;;;;8.95;1.60;;;18.30;72.30;;;;;;4968929;28;20189;-90
2021/07/07 07:33:12;;;;;;;6.43;1.60;;;18.50;70.30;;;;;;4952751;28;20266;-89
2021/07/07 07:35:38;;;;;;;3.13;1.50;;;18.60;71.00;;;;;;4955347;28;20229;-89
2021/07/07 07:38:11;;;;;;;7.70;2.03;;;18.60;69.90;;;;;;4956191;28;20182;-89
2021/07/07 07:40:37;;;;;;;9.75;1.75;;;18.70;70.30;;;;;;4956984;28;20282;-89
2021/07/07 07:43:08;;;;;;;8.65;3.05;;;18.70;70.20;;;;;;4955288;28;20245;-89
2021/07/07 07:45:35;;;;;;;2.83;1.35;;;18.70;70.50;;;;;;4957334;28;20242;-89
2021/07/07 07:48:01;;;;;;;2.67;1.27;;;18.70;71.30;;;;;;4956346;28;20174;-89
2021/07/07 07:50:27;;;;;;;3.85;1.92;;;18.80;69.70;;;;;;4955691;28;20195;-89
2021/07/07 07:52:53;;;;;;;3.67;1.20;;;19.00;69.80;;;;;;4954548;28;20587;-89
2021/07/07 07:55:20;;;;;;;4.85;1.90;;;18.90;67.70;;;;;;4954111;28;20226;-89
2021/07/07 07:57:48;;;;;;;8.25;1.73;;;19.00;67.10;;;;;;4954395;28;20549;-89
2021/07/07 08:00:18;;;;;;;6.63;1.60;;;19.10;68.40;;;;;;4969498;28;20203;-89
2021/07/07 08:02:44;;;;;;;3.22;1.23;;;19.20;66.00;;;;;;4955343;28;20171;-89
2021/07/07 08:05:11;;;;;;;2.78;1.20;;;19.30;68.10;;;;;;4955473;28;20558;-89
2021/07/07 08:07:38;;;;;;;4.20;1.20;;;19.30;65.40;;;;;;4970676;28;20179;-89
2021/07/07 08:10:05;;;;;;;8.50;1.75;;;19.30;65.20;;;;;;4955443;28;20192;-90
2021/07/07 08:12:30;;;;;;;7.85;1.30;;;19.40;64.90;;;;;;4970099;28;20183;-89
2021/07/07 08:14:56;;;;;;;3.30;1.50;;;19.50;64.10;;;;;;4955490;28;20206;-90
2021/07/07 08:17:22;;;;;;;3.95;1.35;;;19.50;65.40;;;;;;4955002;28;20172;-89
2021/07/07 08:19:48;;;;;;;2.95;1.20;;;19.70;63.90;;;;;;4955321;28;20207;-89
2021/07/07 08:22:16;;;;;;;8.80;1.35;;;19.70;63.80;;;;;;4956028;28;20172;-89
2021/07/07 08:24:43;;;;;;;2.78;1.33;;;19.80;66.30;;;;;;4971433;28;20194;-89
2021/07/07 08:27:09;;;;;;;3.75;1.10;;;20.00;64.40;;;;;;5066570;23;20230;-85
2021/07/07 08:29:38;;;;;;;2.42;0.98;;;20.20;65.00;;;;;;5058786;28;20175;-85
2021/07/07 08:32:07;;;;;;;6.05;1.13;;;20.30;63.90;;;;;;5076666;28;20541;-85
2021/07/07 08:34:34;;;;;;;3.53;1.60;;;20.30;63.80;;;;;;5075233;28;20210;-86
2021/07/07 08:37:00;;;;;;;5.40;1.17;;;20.30;61.70;;;;;;5058626;28;20689;-85
2021/07/07 08:39:27;;;;;;;4.80;1.63;;;20.20;62.40;;;;;;5076502;28;20638;-85
2021/07/07 08:41:54;;;;;;;5.28;1.35;;;20.40;61.30;;;;;;5058698;28;20658;-85
2021/07/07 08:44:20;;;;;;;5.65;1.33;;;20.60;63.00;;;;;;5058569;28;20190;-85
2021/07/07 08:46:45;;;;;;;3.72;1.25;;;20.70;63.10;;;;;;5058400;28;20191;-85
2021/07/07 08:49:11;;;;;;;7.25;1.30;;;20.80;63.50;;;;;;5058556;28;20256;-85
2021/07/07 08:51:42;;;;;;;5.10;1.15;;;20.90;60.40;;;;;;5076445;28;20262;-85
2021/07/07 08:54:10;;;;;;;3.35;1.13;;;21.00;63.00;;;;;;5076294;28;20163;-86
2021/07/07 08:56:41;;;;;;;3.97;1.17;;;21.10;61.70;;;;;;5058153;28;20195;-85
2021/07/07 08:59:08;;;;;;;5.15;1.33;;;21.10;62.60;;;;;;5058318;28;20167;-85
2021/07/07 09:02:09;;;;;;;2.47;1.08;;;21.20;62.50;;;;;;5076136;28;20177;-85
2021/07/07 09:04:35;;;;;;;6.15;1.77;;;21.50;59.60;;;;;;5053827;28;20187;-85
2021/07/07 09:07:05;;;;;;;5.47;1.40;;;21.20;60.30;;;;;;5076050;28;20746;-86
2021/07/07 09:09:37;;;;;;;10.75;1.60;;;21.30;62.20;;;;;;5075983;28;20179;-85
2021/07/07 09:12:29;;;;;;;6.43;1.40;;;21.30;60.80;;;;;;5058064;28;20618;-85
2021/07/07 09:15:07;;;;;;;5.72;1.73;;;21.60;59.10;;;;;;5057905;28;20194;-85
2021/07/07 09:17:42;;;;;;;6.22;1.50;;;21.60;59.70;;;;;;5076106;28;20191;-85
2021/07/07 09:20:26;;;;;;;7.15;1.55;;;21.60;60.30;;;;;;5075855;28;20569;-85
2021/07/07 09:23:11;;;;;;;4.63;2.30;;;21.80;58.80;;;;;;5076216;28;20156;-86
2021/07/07 09:25:55;;;;;;;5.50;2.00;;;22.10;59.40;;;;;;5057596;28;20168;-85
2021/07/07 09:28:32;;;;;;;9.05;1.83;;;21.90;59.30;;;;;;5058063;28;20171;-85
2021/07/07 09:31:04;;;;;;;2.92;1.25;;;21.90;59.40;;;;;;5075583;28;20623;-85
2021/07/07 09:33:43;;;;;;;5.18;1.60;;;22.20;60.20;;;;;;5075971;28;20159;-85
2021/07/07 09:36:20;;;;;;;4.82;1.40;;;22.20;58.50;;;;;;5074978;28;20210;-85
2021/07/07 09:38:47;;;;;;;5.72;1.42;;;22.40;59.40;;;;;;5057467;28;20178;-85
2021/07/07 09:41:13;;;;;;;6.13;1.92;;;22.80;57.70;;;;;;5057326;28;20229;-85
2021/07/07 09:43:53;;;;;;;7.38;1.48;;;22.70;57.30;;;;;;5057477;28;20171;-84
2021/07/07 09:46:21;;;;;;;6.07;1.45;;;22.70;55.00;;;;;;5075692;28;20187;-84
2021/07/07 09:48:48;;;;;;;7.78;1.65;;;22.50;57.00;;;;;;5075859;28;20176;-84
2021/07/07 09:51:15;;;;;;;6.93;1.40;;;22.40;59.40;;;;;;5075184;28;20661;-84
2021/07/07 09:53:41;;;;;;;13.52;1.58;;;22.70;59.20;;;;;;5057339;28;20266;-84
2021/07/07 09:56:06;;;;;;;5.45;1.35;;;22.80;56.30;;;;;;5075368;28;20342;-84
2021/07/07 09:58:32;;;;;;;4.18;1.63;;;22.60;55.60;;;;;;5057318;28;20175;-84
2021/07/07 10:00:58;;;;;;;6.18;1.50;;;22.50;56.80;;;;;;5057183;28;20551;-84
2021/07/07 10:03:24;;;;;;;4.32;1.58;;;22.70;58.50;;;;;;5075354;28;20168;-84
2021/07/07 10:05:51;;;;;;;3.03;1.17;;;22.90;55.70;;;;;;5075102;28;20241;-84
2021/07/07 10:08:19;;;;;;;4.32;1.38;;;23.00;57.70;;;;;;5075080;28;20180;-85
2021/07/07 10:10:45;;;;;;;5.80;1.50;;;23.00;53.00;;;;;;5057170;28;20239;-84
2021/07/07 10:13:12;;;;;;;3.95;1.27;;;22.90;55.60;;;;;;5074843;28;20789;-85
2021/07/07 10:15:38;;;;;;;4.10;1.13;;;23.10;56.10;;;;;;5074903;28;20191;-84
2021/07/07 10:18:05;;;;;;;5.82;1.55;;;23.50;55.30;;;;;;5056918;28;20179;-85
2021/07/07 10:20:31;;;;;;;5.57;1.45;;;23.30;54.10;;;;;;5074829;28;20167;-84
2021/07/07 10:22:58;;;;;;;6.90;1.25;;;23.10;54.90;;;;;;5073586;28;20186;-84
2021/07/07 10:25:30;;;;;;;3.13;0.90;;;23.10;52.90;;;;;;5056894;28;20580;-84
2021/07/07 10:28:00;;;;;;;4.65;1.50;;;23.10;52.90;;;;;;5074587;28;20163;-84
2021/07/07 10:30:54;;;;;;;4.47;1.23;;;22.90;52.50;;;;;;5074746;28;20180;-84
2021/07/07 10:33:21;;;;;;;5.68;1.55;;;23.20;54.80;;;;;;5068955;28;20680;-84
2021/07/07 10:35:48;;;;;;;4.40;1.27;;;23.70;53.70;;;;;;5056364;28;20221;-84
2021/07/07 10:38:15;;;;;;;7.65;1.63;;;23.60;51.30;;;;;;5056510;28;20221;-84
2021/07/07 10:40:47;;;;;;;3.33;1.23;;;23.50;53.70;;;;;;5074638;28;20168;-84
2021/07/07 10:43:25;;;;;;;3.08;1.50;;;23.20;51.00;;;;;;5074731;28;20155;-84
2021/07/07 10:45:50;;;;;;;5.18;1.42;;;23.40;55.20;;;;;;5074255;28;20624;-84
2021/07/07 10:48:32;;;;;;;3.70;1.25;;;23.70;55.40;;;;;;5073954;28;20178;-84
2021/07/07 10:51:00;;;;;;;6.25;1.30;;;24.00;51.80;;;;;;5074660;28;20171;-84
2021/07/07 10:53:32;;;;;;;6.13;1.35;;;24.10;50.40;;;;;;5074384;28;20224;-84
2021/07/07 10:55:59;;;;;;;5.32;1.50;;;23.60;50.00;;;;;;5074263;28;20211;-85
2021/07/07 10:58:35;;;;;;;4.50;1.20;;;23.40;52.90;;;;;;5074367;28;20764;-84
2021/07/07 11:01:03;;;;;;;9.35;1.50;;;23.20;52.40;;;;;;5056618;28;20257;-84
2021/07/07 11:03:32;;;;;;;7.85;1.30;;;23.30;51.00;;;;;;5056401;28;20674;-85
2021/07/07 11:06:23;;;;;;;4.15;1.42;;;23.40;52.70;;;;;;5056136;28;20546;-84
2021/07/07 11:08:56;;;;;;;3.88;1.70;;;23.30;52.40;;;;;;5074139;28;20171;-84
2021/07/07 11:11:26;;;;;;;5.43;1.35;;;23.30;51.20;;;;;;5073984;28;20163;-84
2021/07/07 11:13:52;;;;;;;4.45;1.58;;;23.20;54.20;;;;;;5073704;28;20686;-84
2021/07/07 11:16:21;;;;;;;4.93;1.92;;;23.40;52.90;;;;;;5072586;28;20238;-84
2021/07/07 11:18:47;;;;;;;4.13;1.38;;;23.60;53.10;;;;;;5055751;28;20183;-84
2021/07/07 11:21:13;;;;;;;7.75;1.80;;;23.30;52.80;;;;;;5073657;28;20194;-84
2021/07/07 11:23:39;;;;;;;5.50;1.60;;;23.10;53.50;;;;;;5073728;28;20576;-84
2021/07/07 11:26:07;;;;;;;4.28;1.40;;;23.10;52.20;;;;;;5073530;28;20234;-84
2021/07/07 11:28:33;;;;;;;4.53;1.17;;;23.20;53.70;;;;;;5073538;28;20183;-85
2021/07/07 11:30:58;;;;;;;4.47;1.40;;;23.80;54.80;;;;;;5055526;28;20178;-84
2021/07/07 11:33:24;;;;;;;3.83;1.38;;;24.10;49.80;;;;;;5073522;28;20221;-84
2021/07/07 11:35:51;;;;;;;5.20;1.48;;;23.90;50.60;;;;;;5073407;28;20245;-84
2021/07/07 11:38:22;;;;;;;7.20;2.03;;;23.60;52.10;;;;;;5055529;28;20171;-84
2021/07/07 11:40:53;;;;;;;5.88;1.50;;;23.40;54.50;;;;;;5055525;28;20546;-84
2021/07/07 11:43:28;;;;;;;7.35;1.67;;;23.20;53.10;;;;;;5055473;28;20160;-84
2021/07/07 11:45:56;;;;;;;4.30;1.23;;;23.20;53.60;;;;;;5073248;28;20186;-84
2021/07/07 11:51:14;;;;;;;7.82;1.73;;;23.50;54.70;;;;;;5073560;28;20151;-84
2021/07/07 11:53:42;;;;;;;4.47;1.65;;;23.70;51.40;;;;;;5055318;28;20531;-84
2021/07/07 11:56:10;;;;;;;4.40;1.50;;;23.70;53.10;;;;;;5055080;28;20207;-84
2021/07/07 11:58:58;;;;;;;3.85;1.10;;;24.00;52.50;;;;;;5073299;28;20643;-85
2021/07/07 12:01:28;;;;;;;6.40;1.73;;;24.30;51.20;;;;;;5076351;28;20178;-84
2021/07/07 12:03:55;;;;;;;7.63;1.67;;;24.30;52.90;;;;;;5059244;28;20167;-85
2021/07/07 12:06:35;;;;;;;5.93;1.30;;;24.30;52.40;;;;;;5077464;28;20194;-85
2021/07/07 12:09:18;;;;;;;8.68;1.60;;;24.40;51.30;;;;;;5059316;28;20586;-84
2021/07/07 12:11:50;;;;;;;3.60;1.15;;;24.10;50.90;;;;;;5077255;28;20159;-85
2021/07/07 12:14:15;;;;;;;4.50;1.30;;;24.00;49.80;;;;;;5076095;28;20179;-84
2021/07/07 12:16:43;;;;;;;4.00;1.23;;;23.90;51.00;;;;;;5077046;28;20274;-84
2021/07/07 12:19:11;;;;;;;3.30;1.27;;;24.20;50.50;;;;;;5077152;28;20167;-84
2021/07/07 12:21:45;;;;;;;4.55;1.02;;;24.30;48.90;;;;;;5077051;28;20175;-85
2021/07/07 12:24:19;;;;;;;8.25;1.48;;;24.70;49.10;;;;;;5077020;28;20208;-84
2021/07/07 12:26:50;;;;;;;5.70;1.63;;;24.80;48.70;;;;;;5058622;28;20229;-85
2021/07/07 12:29:30;;;;;;;4.47;1.30;;;24.80;47.70;;;;;;5058971;28;20164;-84
2021/07/07 12:32:04;;;;;;;8.13;1.60;;;25.20;48.10;;;;;;5076789;28;20682;-85
2021/07/07 12:34:33;;;;;;;4.85;1.17;;;25.20;47.60;;;;;;5076835;28;20168;-84
2021/07/07 12:37:00;;;;;;;3.42;1.52;;;25.20;45.50;;;;;;5076611;28;20191;-85
2021/07/07 12:39:29;;;;;;;2.75;1.15;;;24.80;49.30;;;;;;5076668;28;20168;-85
2021/07/07 12:42:03;;;;;;;6.85;2.20;;;24.70;49.70;;;;;;5076517;28;20179;-85
2021/07/07 12:44:32;;;;;;;4.40;1.42;;;24.60;50.30;;;;;;5076655;28;20180;-84
2021/07/07 12:47:02;;;;;;;8.35;1.35;;;24.80;49.90;;;;;;5058650;28;20273;-84
2021/07/07 12:49:50;;;;;;;5.25;1.35;;;24.70;51.60;;;;;;5076485;28;20237;-83
2021/07/07 12:52:20;;;;;;;4.22;1.33;;;24.80;48.30;;;;;;5058499;28;20544;-83